Time;durP1;ratioP1;P1;durP2;ratioP2;P2;SDS_P1;SDS_P2;PMS_P1;PMS_P2;Temp;Humidity;BMP_temperature;BMP_pressure;BME280_temperature;BME280_humidity;BME280_pressure;Samples;Min_cycle;Max_cycle;Signal;HPM_P1;HPM_P2
2023/01/12 11:28:03;;;;;;;17.42;13.80;;;9.00;99.90;;;;;;5069783;28;20894;-62
2023/01/12 11:30:35;;;;;;;16.60;12.88;;;9.00;99.90;;;;;;5068890;28;20075;-71
2023/01/12 11:33:25;;;;;;;14.13;11.70;;;9.20;99.90;;;;;;5069603;28;20104;-62
2023/01/12 11:36:02;;;;;;;15.52;11.95;;;9.50;99.90;;;;;;5068444;28;20040;-64
2023/01/12 11:38:46;;;;;;;14.07;11.98;;;9.90;99.90;;;;;;5068053;28;20474;-66
2023/01/12 11:41:34;;;;;;;14.32;10.88;;;10.10;99.40;;;;;;5066339;28;20402;-61
2023/01/12 11:44:10;;;;;;;12.63;9.57;;;10.20;99.90;;;;;;5068121;28;20033;-70
2023/01/12 11:46:39;;;;;;;12.25;9.68;;;10.30;96.30;;;;;;5068706;28;20067;-66
2023/01/12 11:49:33;;;;;;;13.70;11.48;;;10.40;98.90;;;;;;5067852;28;20033;-67
2023/01/12 11:52:00;;;;;;;16.52;12.32;;;10.70;96.70;;;;;;5068996;28;20483;-64
2023/01/12 11:54:27;;;;;;;15.25;11.95;;;10.90;97.30;;;;;;5068494;28;20481;-61
2023/01/12 11:56:56;;;;;;;14.48;12.75;;;11.00;95.50;;;;;;5050076;28;20061;-67
2023/01/12 11:59:40;;;;;;;15.18;11.65;;;11.10;96.40;;;;;;5049694;28;20024;-62
2023/01/12 12:02:19;;;;;;;17.42;13.70;;;11.20;97.40;;;;;;5047453;28;20051;-67
2023/01/12 12:05:10;;;;;;;17.05;14.68;;;11.20;94.90;;;;;;5046467;28;20056;-64
2023/01/12 12:07:44;;;;;;;19.25;15.75;;;11.10;95.60;;;;;;5047330;28;20095;-68
2023/01/12 12:10:21;;;;;;;18.33;14.30;;;11.10;95.90;;;;;;5047983;28;20526;-63
2023/01/12 12:13:05;;;;;;;20.73;15.63;;;11.10;94.90;;;;;;5049211;28;20033;-64
2023/01/12 12:16:15;;;;;;;15.52;13.40;;;11.10;94.80;;;;;;5049037;28;20026;-65
2023/01/12 12:18:50;;;;;;;24.52;18.50;;;11.10;95.30;;;;;;5040076;28;20045;-62
2023/01/12 12:21:47;;;;;;;20.95;16.23;;;10.80;94.50;;;;;;5046035;28;20063;-66
2023/01/12 12:24:41;;;;;;;18.40;15.00;;;10.70;96.30;;;;;;5046894;28;20027;-66
2023/01/12 12:27:14;;;;;;;18.52;14.13;;;10.90;95.80;;;;;;5048717;28;20049;-65
2023/01/12 12:29:43;;;;;;;16.50;13.27;;;11.00;95.20;;;;;;5045090;28;20132;-70
2023/01/12 12:32:15;;;;;;;15.88;12.60;;;10.90;93.40;;;;;;5047273;28;20107;-64
2023/01/12 12:35:22;;;;;;;16.30;12.40;;;10.80;94.50;;;;;;5047540;28;20602;-66
2023/01/12 12:37:54;;;;;;;15.35;11.85;;;10.90;94.00;;;;;;5023466;28;20026;-65
2023/01/12 12:47:04;;;;;;;13.65;11.02;;;11.00;94.40;;;;;;5034529;28;20041;-69
2023/01/12 12:49:33;;;;;;;16.02;12.85;;;10.90;95.00;;;;;;5035482;28;20468;-67
2023/01/12 12:52:00;;;;;;;16.30;12.90;;;10.80;94.20;;;;;;5034699;28;20029;-64
2023/01/12 12:54:27;;;;;;;16.77;12.32;;;10.80;95.50;;;;;;5035881;28;20025;-63
2023/01/12 12:56:54;;;;;;;12.63;10.77;;;10.70;94.70;;;;;;5035182;28;20029;-64
2023/01/12 12:59:32;;;;;;;12.52;10.40;;;10.70;94.40;;;;;;5033726;28;20103;-60
2023/01/12 13:02:02;;;;;;;13.90;9.80;;;10.70;95.70;;;;;;5031009;28;20025;-65
2023/01/12 13:04:43;;;;;;;10.38;9.30;;;10.70;95.10;;;;;;5032273;28;20036;-62
2023/01/12 13:07:19;;;;;;;9.07;7.85;;;10.70;95.00;;;;;;5033890;28;20594;-66
2023/01/12 13:09:47;;;;;;;8.38;7.40;;;10.70;94.70;;;;;;5034020;28;20057;-60
2023/01/12 13:12:31;;;;;;;10.00;8.02;;;10.70;95.20;;;;;;5034800;28;20017;-64
2023/01/12 13:15:16;;;;;;;14.38;10.95;;;10.80;95.00;;;;;;5033717;28;20049;-61
2023/01/12 13:17:44;;;;;;;13.13;10.55;;;10.80;94.10;;;;;;5033037;28;20474;-65
2023/01/12 13:20:10;;;;;;;27.15;18.85;;;10.80;94.60;;;;;;5034444;28;20100;-62
2023/01/12 13:22:38;;;;;;;14.85;11.80;;;10.70;94.70;;;;;;5035305;28;20113;-63
2023/01/12 13:25:19;;;;;;;11.73;9.80;;;10.70;95.80;;;;;;5034918;28;20438;-65
2023/01/12 13:27:49;;;;;;;10.45;8.93;;;10.60;96.00;;;;;;5034007;28;20043;-60
2023/01/12 13:30:30;;;;;;;10.52;8.30;;;10.70;96.30;;;;;;5034515;28;20048;-64
2023/01/12 13:32:58;;;;;;;9.75;8.43;;;10.70;96.10;;;;;;5033382;28;20558;-66
2023/01/12 13:35:33;;;;;;;7.85;7.05;;;10.70;96.10;;;;;;5033217;28;20072;-65
2023/01/12 13:38:32;;;;;;;12.85;10.38;;;10.70;96.50;;;;;;5033378;28;20478;-63
2023/01/12 13:41:01;;;;;;;11.23;9.20;;;10.70;94.40;;;;;;5034464;28;20387;-64
2023/01/12 13:43:37;;;;;;;8.75;7.85;;;10.60;95.60;;;;;;5034599;28;20025;-67
2023/01/12 13:46:20;;;;;;;8.68;7.18;;;10.60;96.10;;;;;;5034473;28;20030;-66
2023/01/12 13:48:48;;;;;;;9.27;7.28;;;10.60;95.50;;;;;;5034675;28;20014;-59
2023/01/12 13:51:39;;;;;;;7.95;7.15;;;10.60;95.40;;;;;;5034266;28;20029;-63
2023/01/12 13:54:14;;;;;;;7.95;7.13;;;10.70;94.90;;;;;;5034069;28;20373;-64
2023/01/12 13:56:40;;;;;;;8.60;7.60;;;10.70;95.30;;;;;;5033526;28;20036;-65
2023/01/12 13:59:15;;;;;;;25.20;18.35;;;10.80;94.90;;;;;;5034676;28;20026;-62
2023/01/12 14:01:44;;;;;;;24.73;19.75;;;10.70;95.60;;;;;;5034671;28;20051;-63
2023/01/12 14:04:20;;;;;;;22.10;17.88;;;10.60;94.90;;;;;;5034986;28;20379;-64
2023/01/12 14:07:01;;;;;;;36.90;29.33;;;10.40;95.20;;;;;;5034809;28;20486;-67
2023/01/12 14:09:45;;;;;;;42.65;32.65;;;10.30;96.20;;;;;;5034794;28;20036;-65
2023/01/12 14:12:47;;;;;;;44.10;32.45;;;10.10;96.90;;;;;;5034532;28;20029;-64
2023/01/12 14:18:27;;;;;;;35.63;29.25;;;10.00;98.70;;;;;;5034696;28;20435;-62
2023/01/12 14:20:57;;;;;;;33.17;27.02;;;10.10;99.20;;;;;;5034533;28;20021;-64
2023/01/12 14:23:26;;;;;;;31.85;25.25;;;10.20;98.90;;;;;;5034310;28;20018;-64
2023/01/12 14:26:13;;;;;;;29.88;23.50;;;10.20;98.40;;;;;;5033941;28;20071;-62
2023/01/12 14:28:44;;;;;;;26.15;21.92;;;10.20;97.70;;;;;;5034176;28;20021;-62
2023/01/12 14:31:26;;;;;;;24.58;20.10;;;10.20;98.60;;;;;;5034161;28;20025;-61
2023/01/12 14:33:57;;;;;;;24.52;20.30;;;10.10;98.30;;;;;;5034083;28;20360;-65
2023/01/12 14:36:27;;;;;;;23.77;19.17;;;10.00;99.00;;;;;;5034109;28;20022;-66
2023/01/12 14:38:54;;;;;;;20.65;17.40;;;10.10;99.10;;;;;;5034061;28;20052;-66
2023/01/12 14:47:04;;;;;;;29.02;23.25;;;10.10;99.20;;;;;;5033972;28;20152;-65
2023/01/12 14:49:33;;;;;;;26.75;21.35;;;10.00;99.60;;;;;;5030320;28;20021;-64
2023/01/12 14:52:01;;;;;;;26.17;21.08;;;10.00;99.70;;;;;;5033429;28;20123;-60
2023/01/12 14:54:30;;;;;;;29.52;23.63;;;10.10;99.60;;;;;;5032807;28;20502;-62
2023/01/12 14:57:03;;;;;;;42.78;32.95;;;10.10;99.50;;;;;;5032402;28;20041;-67
2023/01/12 14:59:31;;;;;;;32.08;24.65;;;10.20;99.90;;;;;;5031661;28;20471;-63
2023/01/12 15:02:12;;;;;;;45.88;35.15;;;10.10;99.90;;;;;;5032004;28;20025;-63
2023/01/12 15:04:56;;;;;;;38.95;29.77;;;10.20;99.90;;;;;;5031067;28;20021;-61
2023/01/12 15:07:25;;;;;;;42.47;31.05;;;10.20;99.90;;;;;;5032546;28;20060;-65
2023/01/12 15:10:03;;;;;;;31.05;25.75;;;10.20;99.30;;;;;;5031311;28;20064;-62
2023/01/12 15:12:28;;;;;;;32.17;25.35;;;10.20;99.10;;;;;;5032859;28;20053;-61
2023/01/12 15:15:23;;;;;;;45.33;33.03;;;10.30;99.00;;;;;;5032125;28;20060;-63
2023/01/12 15:26:15;;;;;;;93.57;75.07;;;9.80;99.90;;;;;;5031435;28;20076;-62
2023/01/12 15:28:41;;;;;;;79.82;61.40;;;9.60;99.90;;;;;;5030807;28;20503;-65
2023/01/12 15:31:37;;;;;;;119.53;92.03;;;9.50;99.90;;;;;;5030989;28;20103;-62
2023/01/12 15:34:04;;;;;;;133.25;95.72;;;9.40;99.90;;;;;;5032012;28;20033;-62
2023/01/12 15:36:30;;;;;;;189.50;136.38;;;9.30;99.90;;;;;;5032575;28;20023;-65
2023/01/12 15:38:56;;;;;;;187.63;135.63;;;9.20;99.90;;;;;;5032978;28;20467;-62
2023/01/12 15:44:14;;;;;;;119.78;88.05;;;9.20;99.90;;;;;;5031319;28;20032;-58
2023/01/12 15:46:40;;;;;;;121.35;86.82;;;9.40;99.90;;;;;;5031128;28;20025;-63
2023/01/12 15:49:05;;;;;;;103.03;70.22;;;9.50;99.90;;;;;;5031810;28;20026;-65
2023/01/12 15:51:32;;;;;;;93.93;64.70;;;9.30;99.90;;;;;;5032117;28;20028;-64
2023/01/12 15:53:58;;;;;;;86.05;59.13;;;9.20;99.90;;;;;;5032136;28;20375;-65
2023/01/12 15:56:24;;;;;;;112.93;70.25;;;9.10;99.90;;;;;;5032593;28;20112;-65
2023/01/12 15:58:50;;;;;;;121.63;80.38;;;9.00;99.90;;;;;;5032816;28;20049;-66
2023/01/12 16:01:18;;;;;;;100.32;69.72;;;8.90;99.90;;;;;;5032682;28;20155;-62
2023/01/12 16:03:44;;;;;;;178.52;121.20;;;8.90;99.90;;;;;;5032900;28;20029;-65
2023/01/12 16:06:10;;;;;;;183.10;123.57;;;8.80;99.90;;;;;;5032661;28;20108;-62
2023/01/12 16:08:37;;;;;;;169.38;114.97;;;8.70;99.90;;;;;;5032861;28;20053;-67
2023/01/12 16:11:11;;;;;;;179.32;127.20;;;8.70;99.90;;;;;;5032809;28;20033;-62
2023/01/12 16:13:37;;;;;;;180.10;124.20;;;8.60;99.90;;;;;;5034693;28;20029;-62
2023/01/12 16:16:03;;;;;;;158.50;112.85;;;8.70;99.90;;;;;;5036412;28;20060;-66
2023/01/12 16:18:30;;;;;;;144.45;104.45;;;8.80;99.90;;;;;;5036509;28;20080;-65
2023/01/12 16:21:00;;;;;;;117.55;84.70;;;8.80;99.90;;;;;;5036360;28;20471;-65
2023/01/12 16:23:27;;;;;;;99.55;68.97;;;8.70;99.90;;;;;;5036483;28;20426;-64
2023/01/12 16:25:59;;;;;;;92.95;67.40;;;8.70;99.90;;;;;;5036200;28;20128;-62
2023/01/12 16:28:27;;;;;;;75.93;57.85;;;8.60;99.90;;;;;;5036221;28;20025;-67
2023/01/12 16:30:53;;;;;;;70.05;51.47;;;8.70;99.90;;;;;;5036456;28;20029;-64
2023/01/12 16:33:20;;;;;;;72.65;51.67;;;8.70;99.90;;;;;;5036182;28;20026;-67
2023/01/12 16:35:46;;;;;;;72.80;55.03;;;8.60;99.90;;;;;;5036051;28;20017;-66
2023/01/12 16:38:13;;;;;;;115.22;81.00;;;8.50;99.90;;;;;;5036144;28;20029;-61
2023/01/12 16:40:40;;;;;;;97.80;70.57;;;8.40;99.90;;;;;;5036110;28;20022;-62
2023/01/12 16:43:06;;;;;;;92.50;60.55;;;8.30;99.90;;;;;;5035770;28;20464;-63
2023/01/12 16:45:31;;;;;;;73.45;54.70;;;8.30;99.90;;;;;;5034697;28;20112;-62
2023/01/12 16:47:58;;;;;;;72.30;52.38;;;8.30;99.90;;;;;;5035807;28;20025;-64
2023/01/12 16:50:23;;;;;;;76.78;54.22;;;8.30;99.90;;;;;;5035811;28;20222;-62
2023/01/12 16:52:49;;;;;;;101.32;66.55;;;8.20;99.90;;;;;;5034662;28;20449;-64
2023/01/12 16:55:15;;;;;;;69.05;50.35;;;8.10;99.90;;;;;;5035751;28;20045;-62
2023/01/12 16:57:41;;;;;;;55.25;43.53;;;8.10;99.90;;;;;;5035453;28;20391;-65
2023/01/12 17:00:08;;;;;;;83.78;55.25;;;8.20;99.90;;;;;;5036035;28;20040;-64
2023/01/12 17:02:34;;;;;;;152.88;96.38;;;8.20;99.90;;;;;;5035696;28;20142;-62
2023/01/12 17:05:00;;;;;;;155.50;98.10;;;8.30;99.90;;;;;;5035683;28;20018;-65
2023/01/12 17:07:27;;;;;;;153.63;97.15;;;8.30;99.90;;;;;;5035543;28;20022;-61
2023/01/12 17:09:52;;;;;;;187.38;115.03;;;8.30;99.90;;;;;;5035555;28;20029;-66
2023/01/12 17:12:18;;;;;;;208.55;131.77;;;8.30;99.90;;;;;;5035292;28;20400;-61
2023/01/12 17:14:44;;;;;;;243.32;159.38;;;8.40;99.90;;;;;;5035345;28;20025;-65
2023/01/12 17:17:10;;;;;;;216.52;146.75;;;8.40;99.90;;;;;;5035549;28;20033;-64
2023/01/12 17:19:38;;;;;;;210.15;147.50;;;8.30;99.90;;;;;;5035417;28;20471;-65
2023/01/12 17:22:06;;;;;;;200.85;147.55;;;8.30;99.90;;;;;;5035311;28;20025;-59
2023/01/12 17:24:33;;;;;;;219.43;146.65;;;8.30;99.90;;;;;;5035329;28;20026;-63
2023/01/12 17:26:59;;;;;;;197.55;124.38;;;8.20;99.90;;;;;;5034796;28;20045;-63
2023/01/12 17:29:26;;;;;;;165.90;112.90;;;8.10;99.90;;;;;;5035136;28;20075;-64
2023/01/12 17:31:54;;;;;;;228.90;153.27;;;8.00;99.90;;;;;;5035168;28;20032;-65
2023/01/12 17:34:20;;;;;;;366.08;253.18;;;8.10;99.90;;;;;;5035221;28;20104;-61
2023/01/12 17:36:46;;;;;;;273.17;183.27;;;8.00;99.90;;;;;;5034993;28;20026;-65
2023/01/12 17:39:13;;;;;;;263.70;175.75;;;8.00;99.90;;;;;;5035119;28;20475;-64
2023/01/12 17:44:24;;;;;;;373.77;233.20;;;8.10;99.90;;;;;;5035028;28;20407;-64
2023/01/12 17:46:49;;;;;;;378.92;248.45;;;8.00;99.90;;;;;;5034855;28;20037;-64
2023/01/12 17:49:16;;;;;;;253.85;166.15;;;8.00;99.90;;;;;;5034951;28;20120;-60
2023/01/12 17:51:41;;;;;;;221.38;139.80;;;8.00;99.90;;;;;;5034755;28;20026;-69
2023/01/12 17:54:10;;;;;;;193.88;131.82;;;7.90;99.90;;;;;;5034772;28;20085;-67
